Aviation Digital Data Service (ADDS)

Output produced by METARs form (0603 UTC 25 June 2018)
found at http://www.aviationweather.gov/adds/metars/
 
METAR text: KHAE 250535Z AUTO 07005KT 10SM CLR 22/20 A2997 RMK AO2
Conditions at: KHAE (HANNIBAL , MO, US) observed 0535 UTC 25 June 2018
Temperature: 22.0°C (72°F)
Dewpoint: 20.0°C (68°F) [RH = 88%]
Pressure (altimeter): 29.97 inches Hg (1015.0 mb)
Winds: from the ENE (70 degrees) at 6 MPH (5 knots; 2.6 m/s)
Visibility: 10 or more miles (16+ km)
Ceiling: at least 12,000 feet AGL
Clouds: sky clear below 12,000 feet AGL
Weather: automated observation with no human augmentation;
there may or may not be significant weather present at this time